Time;durP1;ratioP1;P1;durP2;ratioP2;P2;SDS_P1;SDS_P2;PMS_P1;PMS_P2;Temp;Humidity;BMP_temperature;BMP_pressure;BME280_temperature;BME280_humidity;BME280_pressure;Samples;Min_cycle;Max_cycle;Signal;HPM_P1;HPM_P2
2022/04/16 00:02:56;;;;;;;3.37;1.53;;;3.30;99.90;;;;;;6214340;28;20604;-76
2022/04/16 00:06:03;;;;;;;1.53;1.50;;;3.20;99.90;;;;;;6214771;28;20273;-76
2022/04/16 00:09:08;;;;;;;3.20;1.80;;;3.20;99.90;;;;;;6214544;28;20485;-76
2022/04/16 00:12:13;;;;;;;7.77;1.63;;;3.10;99.90;;;;;;6213173;28;20271;-76
2022/04/16 00:15:19;;;;;;;1.50;1.50;;;3.10;99.90;;;;;;6214194;28;20457;-76
2022/04/16 00:18:26;;;;;;;2.10;1.63;;;3.00;99.90;;;;;;6213601;28;20483;-76
2022/04/16 00:21:31;;;;;;;4.33;1.50;;;2.80;99.90;;;;;;6213706;28;20475;-76
2022/04/16 00:24:37;;;;;;;6.17;1.90;;;2.80;99.90;;;;;;6213773;28;20298;-76
2022/04/16 00:27:42;;;;;;;2.33;1.37;;;2.70;99.90;;;;;;6213606;28;20297;-76
2022/04/16 00:30:48;;;;;;;1.30;1.30;;;2.70;99.90;;;;;;6213910;28;20591;-76
2022/04/16 00:33:54;;;;;;;1.67;1.50;;;2.70;99.90;;;;;;6213275;28;20598;-76
2022/04/16 00:36:59;;;;;;;6.10;1.90;;;2.60;99.90;;;;;;6213731;28;20276;-77
2022/04/16 00:40:07;;;;;;;2.67;1.20;;;2.60;99.90;;;;;;6213212;28;20296;-76
2022/04/16 00:43:22;;;;;;;1.33;1.33;;;2.70;99.90;;;;;;6213008;28;20301;-76
2022/04/16 00:46:27;;;;;;;4.43;1.30;;;2.60;99.90;;;;;;6213601;28;20276;-76
2022/04/16 00:49:34;;;;;;;1.50;1.40;;;2.50;99.90;;;;;;6213141;28;20304;-76
2022/04/16 00:52:40;;;;;;;3.97;1.67;;;2.40;99.90;;;;;;6213320;28;20292;-76
2022/04/16 00:55:46;;;;;;;2.17;1.40;;;2.40;99.90;;;;;;6213106;28;20281;-76
2022/04/16 00:58:51;;;;;;;1.60;1.40;;;2.30;99.90;;;;;;6212529;28;20309;-76
2022/04/16 01:01:59;;;;;;;1.30;1.30;;;2.20;99.90;;;;;;6213231;28;20271;-76
2022/04/16 01:05:09;;;;;;;1.27;1.27;;;2.10;99.90;;;;;;6212271;28;20280;-76
2022/04/16 01:08:14;;;;;;;1.10;1.10;;;2.10;99.90;;;;;;6212635;28;20303;-76
2022/04/16 01:11:20;;;;;;;1.40;1.37;;;2.20;99.90;;;;;;6229394;28;20315;-76
2022/04/16 01:14:26;;;;;;;1.73;1.40;;;2.20;99.90;;;;;;6236835;28;20489;-76
2022/04/16 01:17:31;;;;;;;1.47;1.33;;;2.10;99.90;;;;;;6237096;28;20295;-76
2022/04/16 01:20:38;;;;;;;1.30;1.30;;;2.10;99.90;;;;;;6237449;28;20292;-76
2022/04/16 01:23:45;;;;;;;1.43;1.13;;;2.00;99.90;;;;;;6236827;28;20303;-76
2022/04/16 01:26:51;;;;;;;2.70;1.30;;;2.00;99.90;;;;;;6236969;28;20279;-76
2022/04/16 01:29:57;;;;;;;1.50;1.17;;;2.10;99.90;;;;;;6236622;28;20605;-76
2022/04/16 01:33:03;;;;;;;3.43;1.20;;;2.10;99.90;;;;;;6236498;28;20294;-76
2022/04/16 01:36:12;;;;;;;1.20;1.20;;;2.00;99.90;;;;;;6236635;28;20463;-76
2022/04/16 01:39:19;;;;;;;1.00;1.00;;;2.00;99.90;;;;;;6236316;28;20303;-76
2022/04/16 01:42:25;;;;;;;2.73;1.60;;;2.00;99.90;;;;;;6236267;28;20312;-76
2022/04/16 01:45:33;;;;;;;6.37;1.50;;;1.80;99.90;;;;;;6236976;28;20272;-76
2022/04/16 01:48:39;;;;;;;1.00;1.00;;;1.80;99.90;;;;;;6236450;28;20596;-76
2022/04/16 01:51:44;;;;;;;4.10;1.20;;;1.70;99.90;;;;;;6235803;28;20268;-76
2022/04/16 01:54:51;;;;;;;2.30;1.70;;;1.80;99.90;;;;;;6236161;28;20306;-76
2022/04/16 01:57:58;;;;;;;2.57;1.40;;;1.80;99.90;;;;;;6235851;28;20294;-76
2022/04/16 02:01:03;;;;;;;3.97;1.10;;;1.80;99.90;;;;;;6236743;28;20296;-76
2022/04/16 02:04:09;;;;;;;1.03;1.00;;;1.80;99.90;;;;;;6236079;28;20296;-76
2022/04/16 02:07:15;;;;;;;1.10;1.10;;;1.80;99.90;;;;;;6235929;28;20274;-76
2022/04/16 02:10:22;;;;;;;3.40;1.20;;;1.80;99.90;;;;;;6236558;28;20293;-76
2022/04/16 02:13:28;;;;;;;1.03;1.03;;;1.80;99.90;;;;;;6235754;28;20296;-76
2022/04/16 02:16:33;;;;;;;1.13;1.13;;;1.70;99.90;;;;;;6236933;28;20449;-76
2022/04/16 02:19:39;;;;;;;1.10;1.10;;;1.80;99.90;;;;;;6235742;28;20591;-76
2022/04/16 02:22:47;;;;;;;1.00;1.00;;;1.80;99.90;;;;;;6235401;28;20289;-76
2022/04/16 02:25:54;;;;;;;0.97;0.97;;;1.80;99.90;;;;;;6236499;28;20274;-76
2022/04/16 02:29:00;;;;;;;1.70;1.40;;;1.60;99.90;;;;;;6235735;28;20310;-76
2022/04/16 02:32:06;;;;;;;1.00;1.00;;;1.60;99.90;;;;;;6235849;28;20274;-76
2022/04/16 02:35:14;;;;;;;1.03;1.03;;;1.60;99.90;;;;;;6236297;28;20279;-76
2022/04/16 02:38:19;;;;;;;1.00;1.00;;;1.60;99.90;;;;;;6235662;28;20597;-76
2022/04/16 02:41:26;;;;;;;1.30;1.17;;;1.60;99.90;;;;;;6236070;28;20308;-76
2022/04/16 02:47:54;;;;;;;1.03;1.03;;;1.60;99.90;;;;;;6235561;28;20299;-76
2022/04/16 02:50:59;;;;;;;1.77;1.00;;;1.50;99.90;;;;;;6236051;28;20275;-75
2022/04/16 02:54:05;;;;;;;0.97;0.97;;;1.50;99.90;;;;;;6235633;28;20589;-75
2022/04/16 02:57:13;;;;;;;1.80;1.30;;;1.50;99.90;;;;;;6235414;28;20278;-76
2022/04/16 03:00:20;;;;;;;0.93;0.93;;;1.40;99.90;;;;;;6233826;28;20480;-75
2022/04/16 03:03:25;;;;;;;1.10;1.10;;;1.40;99.90;;;;;;6218250;28;20299;-75
2022/04/16 03:06:31;;;;;;;1.20;1.10;;;1.40;99.90;;;;;;6225622;28;20357;-75
2022/04/16 03:09:36;;;;;;;1.43;1.00;;;1.40;99.90;;;;;;6239154;28;20305;-75
2022/04/16 03:12:46;;;;;;;1.03;1.03;;;1.40;99.90;;;;;;6215492;28;20294;-76
2022/04/16 03:19:14;;;;;;;1.30;1.30;;;1.30;99.90;;;;;;6215406;28;20303;-75
2022/04/16 03:22:19;;;;;;;1.03;1.03;;;1.30;99.90;;;;;;6215440;28;20299;-76
2022/04/16 03:25:25;;;;;;;1.00;1.00;;;1.40;99.90;;;;;;6216030;28;20273;-75
2022/04/16 03:28:33;;;;;;;1.00;1.00;;;1.40;99.90;;;;;;6215171;28;20303;-75
2022/04/16 03:31:38;;;;;;;1.03;1.03;;;1.30;99.90;;;;;;6215378;28;20376;-76
2022/04/16 03:34:44;;;;;;;0.90;0.90;;;1.30;99.90;;;;;;6215269;28;20297;-75
2022/04/16 03:37:50;;;;;;;1.13;1.13;;;1.30;99.90;;;;;;6235647;28;20297;-75
2022/04/16 03:40:55;;;;;;;1.50;1.00;;;1.30;99.90;;;;;;6239319;28;20308;-75
2022/04/16 03:44:02;;;;;;;1.10;1.10;;;1.20;99.90;;;;;;6238587;28;20302;-75
2022/04/16 03:47:10;;;;;;;1.00;1.00;;;1.20;99.90;;;;;;6238958;28;20302;-75
2022/04/16 03:50:16;;;;;;;1.00;1.00;;;1.20;99.90;;;;;;6239035;28;20582;-76
2022/04/16 03:53:21;;;;;;;1.20;1.20;;;1.30;99.90;;;;;;6238463;28;20295;-75
2022/04/16 04:00:05;;;;;;;1.33;1.27;;;1.20;99.90;;;;;;6238546;28;20306;-75
2022/04/16 04:03:17;;;;;;;1.10;1.10;;;1.20;99.90;;;;;;6238282;28;20316;-75
2022/04/16 04:06:23;;;;;;;2.83;1.07;;;1.20;99.90;;;;;;6238972;28;20268;-75
2022/04/16 04:09:28;;;;;;;1.17;1.10;;;1.30;99.90;;;;;;6237366;28;20296;-75
2022/04/16 04:12:34;;;;;;;1.10;1.10;;;1.30;99.90;;;;;;6214164;28;20300;-75
2022/04/16 04:15:41;;;;;;;1.00;1.00;;;1.30;99.90;;;;;;6213789;28;20450;-75
2022/04/16 04:18:46;;;;;;;1.10;1.10;;;1.40;99.90;;;;;;6214060;28;20605;-75
2022/04/16 04:21:55;;;;;;;1.00;1.00;;;1.40;99.90;;;;;;6213822;28;20293;-75
2022/04/16 04:25:00;;;;;;;1.23;1.10;;;1.50;99.90;;;;;;6213440;28;20282;-75
2022/04/16 04:28:06;;;;;;;1.20;1.20;;;1.50;99.90;;;;;;6213737;28;20309;-76
2022/04/16 04:31:12;;;;;;;1.43;1.33;;;1.50;99.90;;;;;;6214531;28;20283;-76
2022/04/16 04:34:18;;;;;;;1.20;1.20;;;1.60;99.90;;;;;;6228646;28;20299;-76
2022/04/16 04:37:23;;;;;;;1.20;1.20;;;1.50;99.90;;;;;;6213520;28;20297;-76
2022/04/16 04:40:29;;;;;;;2.10;1.37;;;1.50;99.90;;;;;;6214074;28;20275;-76
2022/04/16 04:43:34;;;;;;;1.33;0.97;;;1.60;99.90;;;;;;6213278;28;20481;-76
2022/04/16 04:46:42;;;;;;;1.20;1.20;;;1.70;99.90;;;;;;6213528;28;20273;-76
2022/04/16 04:49:50;;;;;;;1.00;1.00;;;1.70;99.90;;;;;;6212885;28;20299;-76
2022/04/16 04:52:55;;;;;;;1.27;1.20;;;1.80;99.90;;;;;;6213150;28;20299;-76
2022/04/16 04:56:00;;;;;;;1.30;1.30;;;1.90;99.90;;;;;;6213543;28;20278;-76
2022/04/16 04:59:06;;;;;;;1.13;1.10;;;2.00;99.90;;;;;;6213052;28;20295;-76
2022/04/16 05:02:14;;;;;;;1.17;1.17;;;1.90;99.90;;;;;;6212586;28;20313;-76
2022/04/16 05:05:19;;;;;;;1.23;1.23;;;2.00;99.90;;;;;;6213531;28;20280;-76
2022/04/16 05:08:24;;;;;;;1.47;1.43;;;2.10;99.90;;;;;;6227692;28;20301;-76
2022/04/16 05:11:30;;;;;;;1.23;1.23;;;2.10;99.90;;;;;;6231981;28;20297;-76
2022/04/16 05:14:35;;;;;;;1.20;1.20;;;2.30;99.90;;;;;;6236731;28;20296;-75
2022/04/16 05:17:42;;;;;;;1.10;1.10;;;2.30;99.90;;;;;;6236998;28;20300;-75
2022/04/16 05:20:47;;;;;;;1.10;1.00;;;2.40;99.90;;;;;;6237421;28;20276;-76
2022/04/16 05:23:52;;;;;;;1.10;1.10;;;2.50;99.90;;;;;;6236549;28;20299;-76
2022/04/16 05:26:57;;;;;;;1.00;1.00;;;2.60;99.90;;;;;;6236716;28;20487;-76
2022/04/16 05:30:12;;;;;;;1.13;1.13;;;2.70;99.90;;;;;;6237296;28;20272;-76
2022/04/16 05:36:38;;;;;;;2.07;1.17;;;2.90;99.90;;;;;;6236007;28;20468;-76
2022/04/16 05:39:43;;;;;;;1.00;1.00;;;3.00;99.90;;;;;;6236050;28;20307;-76
2022/04/16 05:42:49;;;;;;;2.17;1.10;;;3.20;99.90;;;;;;6236010;28;20296;-76
2022/04/16 05:45:54;;;;;;;1.10;1.10;;;3.20;99.90;;;;;;6236644;28;20430;-77
2022/04/16 05:49:00;;;;;;;1.47;1.00;;;3.30;99.90;;;;;;6236434;28;20299;-77
2022/04/16 05:52:07;;;;;;;1.13;1.13;;;3.40;99.90;;;;;;6236424;28;20280;-76
2022/04/16 05:55:13;;;;;;;2.17;1.10;;;3.50;99.90;;;;;;6236431;28;20276;-76
2022/04/16 05:58:19;;;;;;;1.10;1.10;;;3.60;99.90;;;;;;6235613;28;20297;-77
2022/04/16 06:01:24;;;;;;;1.10;1.00;;;3.60;99.90;;;;;;6236602;28;20279;-77
2022/04/16 06:04:33;;;;;;;1.00;1.00;;;3.70;99.90;;;;;;6236173;28;20293;-77
2022/04/16 06:07:39;;;;;;;0.97;0.97;;;3.70;99.90;;;;;;6235864;28;20295;-77
2022/04/16 06:10:45;;;;;;;1.00;1.00;;;3.80;99.90;;;;;;6224866;28;20298;-77
2022/04/16 06:13:50;;;;;;;1.27;0.90;;;3.90;99.90;;;;;;6211587;28;20608;-76
2022/04/16 06:16:55;;;;;;;0.93;0.93;;;4.00;99.90;;;;;;6212251;28;20448;-76
2022/04/16 06:20:03;;;;;;;1.00;1.00;;;4.10;98.90;;;;;;6211447;28;20281;-77
2022/04/16 06:23:11;;;;;;;0.90;0.90;;;4.20;98.50;;;;;;6211371;28;20468;-76
2022/04/16 06:26:16;;;;;;;1.00;1.00;;;4.30;97.50;;;;;;6212149;28;20270;-75
2022/04/16 06:29:21;;;;;;;2.53;0.90;;;4.40;96.20;;;;;;6211784;28;20298;-76
2022/04/16 06:32:26;;;;;;;0.73;0.73;;;4.50;95.80;;;;;;6211736;28;20298;-76
2022/04/16 06:35:33;;;;;;;0.83;0.80;;;4.60;95.60;;;;;;6211934;28;20280;-75
2022/04/16 06:38:39;;;;;;;1.17;0.80;;;4.60;95.80;;;;;;6212785;28;20303;-76
2022/04/16 06:41:44;;;;;;;0.80;0.80;;;4.60;96.40;;;;;;6216965;28;20462;-76
2022/04/16 06:44:49;;;;;;;0.97;0.97;;;4.80;95.70;;;;;;6216013;28;20311;-76
2022/04/16 06:47:55;;;;;;;0.80;0.80;;;5.00;94.70;;;;;;6216100;28;20290;-76
2022/04/16 06:51:01;;;;;;;1.20;0.70;;;5.10;93.40;;;;;;6216558;28;20271;-75
2022/04/16 06:54:06;;;;;;;0.40;0.40;;;5.30;92.70;;;;;;6215869;28;20441;-76
2022/04/16 06:57:13;;;;;;;0.60;0.60;;;5.40;91.30;;;;;;6215596;28;20273;-75
2022/04/16 07:00:18;;;;;;;0.70;0.70;;;5.60;84.60;;;;;;6215703;28;20275;-75
2022/04/16 07:03:24;;;;;;;3.00;0.60;;;6.00;86.60;;;;;;6213739;28;20308;-77
2022/04/16 07:06:30;;;;;;;0.70;0.70;;;6.50;84.30;;;;;;6216073;28;20549;-75
2022/04/16 07:09:38;;;;;;;0.70;0.70;;;7.10;80.20;;;;;;6218264;28;20303;-75
2022/04/16 07:12:43;;;;;;;0.70;0.70;;;7.40;72.60;;;;;;6239447;28;20296;-77
2022/04/16 07:15:48;;;;;;;0.70;0.70;;;7.30;67.80;;;;;;6239830;28;20558;-75
2022/04/16 07:18:53;;;;;;;0.87;0.70;;;7.10;69.00;;;;;;6239285;28;20298;-75
2022/04/16 07:22:00;;;;;;;0.80;0.80;;;7.20;68.80;;;;;;6239249;28;20280;-75
2022/04/16 07:25:07;;;;;;;0.83;0.73;;;6.90;67.20;;;;;;6239319;28;20290;-76
2022/04/16 07:28:14;;;;;;;1.07;0.70;;;6.70;67.00;;;;;;6221373;28;20316;-76
2022/04/16 07:31:19;;;;;;;0.70;0.70;;;6.60;70.10;;;;;;6239673;28;20268;-76
2022/04/16 07:34:25;;;;;;;2.47;0.80;;;6.50;72.20;;;;;;6239294;28;20606;-76
2022/04/16 07:37:32;;;;;;;0.70;0.70;;;6.50;71.50;;;;;;6238707;28;20292;-77
2022/04/16 07:40:37;;;;;;;0.70;0.70;;;6.50;72.30;;;;;;6239551;28;20272;-76
2022/04/16 07:43:42;;;;;;;0.80;0.80;;;6.50;73.90;;;;;;6238874;28;20303;-76
2022/04/16 07:46:48;;;;;;;0.70;0.70;;;6.60;71.40;;;;;;6239274;28;20268;-76
2022/04/16 07:49:53;;;;;;;0.80;0.80;;;6.60;68.90;;;;;;6237908;28;20296;-76
2022/04/16 07:53:00;;;;;;;1.90;0.70;;;6.60;69.10;;;;;;6238600;28;20313;-76
2022/04/16 07:56:06;;;;;;;0.80;0.80;;;6.60;64.30;;;;;;6239175;28;20284;-76
2022/04/16 07:59:13;;;;;;;0.70;0.70;;;6.70;65.50;;;;;;6238457;28;20303;-77
2022/04/16 08:02:18;;;;;;;0.70;0.70;;;6.70;64.70;;;;;;6237342;28;20316;-77
2022/04/16 08:05:23;;;;;;;0.70;0.70;;;6.80;63.00;;;;;;6238612;28;20292;-76
2022/04/16 08:08:34;;;;;;;0.80;0.80;;;6.80;64.10;;;;;;6238356;28;20296;-76
2022/04/16 08:11:39;;;;;;;1.08;0.68;;;6.80;63.80;;;;;;6220432;28;20298;-77
2022/04/16 08:14:44;;;;;;;0.70;0.70;;;6.80;61.80;;;;;;6214264;28;20301;-77
2022/04/16 08:17:50;;;;;;;0.97;0.97;;;6.80;61.50;;;;;;6214236;28;20292;-76
2022/04/16 08:20:55;;;;;;;0.90;0.90;;;6.90;61.30;;;;;;6214667;28;20269;-76
2022/04/16 08:24:13;;;;;;;0.70;0.70;;;6.90;60.70;;;;;;6213556;28;20305;-77
2022/04/16 08:27:18;;;;;;;0.77;0.77;;;6.90;61.30;;;;;;6213832;28;20301;-76
2022/04/16 08:30:23;;;;;;;0.93;0.80;;;7.00;58.90;;;;;;6214227;28;20273;-77
2022/04/16 08:33:28;;;;;;;0.90;0.83;;;7.00;56.70;;;;;;6213982;28;20297;-76
2022/04/16 08:36:37;;;;;;;0.90;0.90;;;7.00;55.70;;;;;;6214293;28;20298;-76
2022/04/16 08:39:43;;;;;;;0.87;0.70;;;7.00;55.60;;;;;;6213005;28;20336;-77
2022/04/16 08:42:50;;;;;;;1.85;0.90;;;7.10;56.80;;;;;;6212015;28;20293;-77
2022/04/16 08:45:56;;;;;;;0.80;0.80;;;7.10;56.90;;;;;;6228701;28;20296;-76
2022/04/16 08:49:02;;;;;;;0.90;0.90;;;7.10;57.20;;;;;;6213025;28;20577;-77
2022/04/16 08:52:09;;;;;;;2.15;0.90;;;7.40;57.60;;;;;;6213136;28;20273;-77
2022/04/16 08:55:15;;;;;;;0.90;0.90;;;7.50;57.70;;;;;;6213485;28;20277;-77
2022/04/16 08:58:21;;;;;;;1.00;0.90;;;7.50;55.40;;;;;;6213294;28;20301;-76
2022/04/16 09:01:27;;;;;;;1.77;0.75;;;7.50;54.90;;;;;;6212741;28;20274;-76
2022/04/16 09:04:32;;;;;;;0.90;0.90;;;7.50;54.00;;;;;;6212790;28;20305;-77
2022/04/16 09:07:45;;;;;;;1.13;0.93;;;7.50;54.20;;;;;;6212871;28;20300;-77
2022/04/16 09:10:52;;;;;;;0.80;0.80;;;7.60;56.50;;;;;;6226433;28;20296;-76
2022/04/16 09:13:57;;;;;;;0.70;0.70;;;7.70;55.50;;;;;;6236915;28;20301;-76
2022/04/16 09:17:08;;;;;;;0.70;0.70;;;7.80;53.60;;;;;;6237026;28;20284;-77
2022/04/16 09:20:15;;;;;;;0.73;0.73;;;7.80;52.40;;;;;;6237361;28;20277;-77
2022/04/16 09:23:23;;;;;;;0.70;0.70;;;7.90;54.10;;;;;;6236705;28;20309;-77
2022/04/16 09:26:34;;;;;;;2.17;0.73;;;8.00;52.80;;;;;;6237455;28;20312;-77
2022/04/16 09:29:40;;;;;;;3.22;0.75;;;7.90;53.70;;;;;;6236592;28;20468;-77
2022/04/16 09:32:46;;;;;;;0.70;0.70;;;8.00;53.10;;;;;;6236033;28;20296;-77
2022/04/16 09:35:55;;;;;;;0.80;0.80;;;8.00;52.90;;;;;;6237185;28;20274;-77
2022/04/16 09:39:02;;;;;;;0.98;0.80;;;8.10;52.50;;;;;;6236408;28;20465;-77
2022/04/16 09:42:26;;;;;;;0.80;0.80;;;8.10;54.30;;;;;;6218784;28;20273;-76
2022/04/16 09:45:32;;;;;;;0.70;0.70;;;8.10;51.40;;;;;;6236737;28;20288;-76
2022/04/16 09:48:38;;;;;;;1.58;1.48;;;8.20;50.60;;;;;;6236065;28;20296;-76
2022/04/16 09:51:45;;;;;;;2.50;0.80;;;8.20;51.20;;;;;;6236970;28;20272;-76
2022/04/16 09:54:51;;;;;;;3.03;0.70;;;8.30;50.70;;;;;;6236264;28;20301;-76
2022/04/16 09:58:02;;;;;;;0.90;0.90;;;8.40;49.70;;;;;;6236187;28;20292;-76
2022/04/16 10:01:09;;;;;;;0.75;0.75;;;8.50;49.90;;;;;;6236245;28;20274;-76
2022/04/16 10:04:17;;;;;;;3.83;0.90;;;8.70;50.00;;;;;;6235894;28;20371;-76
2022/04/16 10:07:22;;;;;;;0.70;0.70;;;8.80;49.70;;;;;;6235739;28;20387;-77
2022/04/16 10:10:30;;;;;;;1.10;0.70;;;9.10;50.40;;;;;;6226938;28;20504;-77
2022/04/16 10:13:41;;;;;;;4.57;0.77;;;9.30;49.70;;;;;;6212945;28;20461;-77
2022/04/16 10:16:59;;;;;;;0.80;0.80;;;9.50;49.80;;;;;;6217027;28;20273;-77
2022/04/16 10:20:09;;;;;;;2.50;0.70;;;9.60;49.70;;;;;;6231078;28;20281;-78
2022/04/16 10:23:27;;;;;;;0.80;0.80;;;9.90;49.30;;;;;;6223222;28;20298;-77
2022/04/16 10:26:38;;;;;;;0.70;0.70;;;10.00;47.40;;;;;;6225675;28;20308;-77
2022/04/16 10:29:51;;;;;;;0.85;0.85;;;10.20;47.80;;;;;;6240192;28;20308;-77
2022/04/16 10:32:56;;;;;;;0.88;0.88;;;10.40;47.50;;;;;;6240727;28;20572;-76
2022/04/16 10:36:09;;;;;;;0.77;0.77;;;10.70;47.50;;;;;;6223813;28;20424;-77
2022/04/16 10:39:16;;;;;;;0.85;0.85;;;10.80;46.70;;;;;;6216321;28;20292;-76
2022/04/16 10:42:32;;;;;;;1.95;0.70;;;11.00;46.70;;;;;;6216590;28;20297;-76
2022/04/16 10:46:02;;;;;;;0.88;0.88;;;11.00;45.70;;;;;;6216503;28;20313;-77
2022/04/16 10:49:09;;;;;;;2.20;0.90;;;11.20;46.30;;;;;;6216187;28;20293;-76
2022/04/16 10:52:21;;;;;;;1.25;0.60;;;11.30;45.50;;;;;;6226203;28;20270;-76
2022/04/16 10:55:31;;;;;;;0.80;0.80;;;11.10;46.30;;;;;;6240275;28;20276;-78
2022/04/16 10:58:36;;;;;;;0.90;0.90;;;11.10;46.60;;;;;;6239761;28;20587;-76
2022/04/16 11:01:54;;;;;;;1.00;1.00;;;11.10;46.40;;;;;;6240677;28;20277;-76
2022/04/16 11:05:00;;;;;;;1.80;0.80;;;11.10;46.20;;;;;;6238542;28;20276;-76
2022/04/16 11:08:07;;;;;;;1.17;1.17;;;10.90;45.90;;;;;;6239039;28;20308;-76
2022/04/16 11:11:14;;;;;;;1.50;0.90;;;10.80;46.30;;;;;;6240077;28;20297;-76
2022/04/16 11:14:19;;;;;;;1.27;0.90;;;10.90;46.20;;;;;;6239805;28;20313;-76
2022/04/16 11:17:27;;;;;;;0.88;0.88;;;11.00;45.90;;;;;;6239455;28;20288;-77
2022/04/16 11:20:32;;;;;;;0.85;0.85;;;11.00;45.70;;;;;;6239744;28;20272;-78
2022/04/16 11:23:45;;;;;;;0.80;0.80;;;11.10;46.30;;;;;;6239177;28;20486;-77
2022/04/16 11:37:15;;;;;;;1.45;1.00;;;11.80;44.30;;;;;;6215169;28;20282;-77
2022/04/16 11:40:20;;;;;;;0.80;0.80;;;11.90;44.50;;;;;;6215592;28;20277;-77
2022/04/16 11:43:28;;;;;;;1.17;0.80;;;12.00;44.50;;;;;;6214642;28;20301;-77
2022/04/16 11:46:41;;;;;;;1.50;0.75;;;12.20;44.60;;;;;;6215480;28;20294;-77
2022/04/16 11:49:51;;;;;;;1.38;1.10;;;12.40;43.90;;;;;;6214883;28;20317;-77
2022/04/16 11:52:56;;;;;;;0.90;0.90;;;12.50;43.50;;;;;;6214981;28;20300;-77
2022/04/16 11:56:01;;;;;;;1.20;1.10;;;12.50;42.80;;;;;;6215320;28;20273;-77
2022/04/16 11:59:07;;;;;;;0.77;0.77;;;12.60;42.80;;;;;;6214234;28;20311;-77
2022/04/16 12:02:12;;;;;;;1.35;1.00;;;12.60;43.00;;;;;;6213975;28;20269;-78
2022/04/16 12:05:26;;;;;;;1.17;1.10;;;12.60;42.70;;;;;;6214598;28;20278;-77
2022/04/16 12:08:34;;;;;;;0.98;0.98;;;12.60;42.80;;;;;;6214004;28;20321;-77
2022/04/16 12:11:39;;;;;;;1.25;1.00;;;12.70;42.60;;;;;;6234605;28;20300;-77
2022/04/16 12:14:50;;;;;;;6.22;1.20;;;12.60;43.30;;;;;;6238389;28;20296;-77
2022/04/16 12:17:56;;;;;;;1.10;1.10;;;12.60;43.90;;;;;;6238209;28;20467;-77
2022/04/16 12:21:08;;;;;;;0.90;0.90;;;12.50;44.40;;;;;;6238964;28;20305;-78
2022/04/16 12:24:14;;;;;;;2.85;1.00;;;12.50;43.20;;;;;;6238140;28;20587;-77
2022/04/16 12:27:26;;;;;;;0.80;0.80;;;12.50;43.20;;;;;;6237476;28;20300;-77
2022/04/16 12:30:32;;;;;;;1.05;1.05;;;12.50;43.90;;;;;;6238660;28;20273;-78
2022/04/16 12:33:38;;;;;;;0.95;0.95;;;12.50;43.50;;;;;;6237682;28;20296;-77
2022/04/16 12:36:45;;;;;;;1.20;1.20;;;12.70;41.80;;;;;;6237052;28;20272;-77
2022/04/16 12:39:50;;;;;;;1.55;0.88;;;12.80;41.60;;;;;;6237511;28;20300;-77
2022/04/16 12:42:57;;;;;;;2.80;1.42;;;12.80;42.00;;;;;;6237461;28;20471;-78
2022/04/16 12:46:03;;;;;;;1.75;1.00;;;12.80;42.90;;;;;;6238339;28;20279;-78
2022/04/16 12:49:09;;;;;;;1.30;1.30;;;12.70;42.70;;;;;;6237462;28;20305;-78
2022/04/16 12:52:16;;;;;;;1.30;1.30;;;12.70;43.00;;;;;;6219615;28;20277;-77
2022/04/16 12:55:22;;;;;;;1.20;1.20;;;12.60;41.70;;;;;;6237694;28;20276;-76
2022/04/16 12:58:27;;;;;;;1.00;1.00;;;12.60;41.90;;;;;;6236897;28;20304;-76
2022/04/16 13:01:34;;;;;;;1.00;1.00;;;12.60;41.50;;;;;;6237362;28;20269;-76
2022/04/16 13:04:39;;;;;;;0.95;0.95;;;12.70;42.10;;;;;;6236930;28;20547;-76
2022/04/16 13:07:46;;;;;;;0.90;0.90;;;12.70;41.90;;;;;;6236503;28;20304;-76
2022/04/16 13:10:52;;;;;;;1.15;1.00;;;12.80;42.50;;;;;;6236727;28;20304;-77
2022/04/16 13:13:57;;;;;;;0.73;0.73;;;12.80;42.60;;;;;;6236817;28;20332;-76
2022/04/16 13:17:03;;;;;;;1.05;1.05;;;12.70;40.90;;;;;;6236682;28;20273;-77
2022/04/16 13:20:13;;;;;;;1.38;0.90;;;12.90;42.10;;;;;;6237210;28;20273;-76
2022/04/16 13:23:19;;;;;;;1.75;0.85;;;13.10;41.70;;;;;;6236731;28;20312;-77
2022/04/16 13:26:25;;;;;;;1.63;1.50;;;13.00;40.30;;;;;;6211416;28;20264;-76
2022/04/16 13:29:30;;;;;;;1.58;1.48;;;12.90;42.90;;;;;;6212473;28;20304;-77
2022/04/16 13:32:36;;;;;;;1.17;1.17;;;12.70;44.70;;;;;;6211827;28;20576;-77
2022/04/16 13:35:42;;;;;;;6.47;1.23;;;12.60;45.30;;;;;;6212949;28;20568;-77
2022/04/16 13:38:49;;;;;;;1.85;1.48;;;12.70;45.10;;;;;;6212440;28;20477;-76
2022/04/16 13:41:53;;;;;;;1.85;1.00;;;12.80;45.20;;;;;;6212649;28;20552;-77
2022/04/16 13:44:59;;;;;;;2.55;1.20;;;12.70;45.00;;;;;;6211308;28;20460;-76
2022/04/16 13:48:05;;;;;;;1.38;1.15;;;12.70;44.90;;;;;;6211734;28;20308;-76
2022/04/16 13:51:10;;;;;;;0.90;0.90;;;12.80;45.10;;;;;;6212836;28;20272;-77
2022/04/16 13:54:17;;;;;;;1.05;1.05;;;12.60;45.10;;;;;;6212267;28;20301;-77
2022/04/16 13:57:23;;;;;;;0.98;0.98;;;12.50;45.80;;;;;;6211661;28;20297;-77
2022/04/16 14:00:28;;;;;;;1.45;1.05;;;12.20;45.80;;;;;;6212049;28;20464;-77
2022/04/16 14:03:33;;;;;;;1.15;0.98;;;12.10;46.10;;;;;;6211788;28;20296;-77
2022/04/16 14:06:39;;;;;;;1.20;1.20;;;12.00;46.10;;;;;;6212117;28;20272;-77
2022/04/16 14:09:45;;;;;;;1.33;1.10;;;12.00;46.40;;;;;;6215425;28;20626;-77
2022/04/16 14:12:51;;;;;;;2.10;1.02;;;12.00;46.50;;;;;;6235914;28;20297;-77
2022/04/16 14:15:56;;;;;;;1.10;1.10;;;11.90;46.10;;;;;;6235983;28;20272;-77
2022/04/16 14:19:02;;;;;;;1.20;1.10;;;11.70;46.30;;;;;;6235969;28;20296;-77
2022/04/16 14:22:07;;;;;;;0.95;0.95;;;11.70;46.50;;;;;;6235395;28;20276;-77
2022/04/16 14:25:16;;;;;;;1.15;1.00;;;11.80;46.30;;;;;;6236501;28;20288;-78
2022/04/16 14:28:21;;;;;;;1.48;1.00;;;12.00;46.90;;;;;;6236281;28;20300;-76
2022/04/16 14:31:26;;;;;;;1.98;0.98;;;12.20;46.60;;;;;;6236682;28;20272;-76
2022/04/16 14:34:32;;;;;;;3.63;1.20;;;12.30;46.40;;;;;;6235309;28;20316;-76
2022/04/16 14:37:37;;;;;;;1.42;0.90;;;12.20;45.60;;;;;;6235506;28;20292;-76
2022/04/16 14:40:45;;;;;;;1.52;1.13;;;11.80;45.60;;;;;;6235817;28;20466;-77
2022/04/16 14:43:53;;;;;;;1.95;1.85;;;11.80;45.70;;;;;;6235685;28;20301;-77
2022/04/16 14:46:58;;;;;;;1.20;1.20;;;12.00;46.00;;;;;;6218241;28;20280;-76
2022/04/16 14:50:04;;;;;;;1.75;1.10;;;11.90;45.80;;;;;;6236154;28;20293;-77
2022/04/16 14:53:13;;;;;;;1.20;1.20;;;11.80;45.80;;;;;;6235769;28;20324;-77
2022/04/16 14:56:19;;;;;;;2.72;1.20;;;11.90;46.60;;;;;;6235648;28;20276;-77
2022/04/16 14:59:25;;;;;;;4.15;1.80;;;12.00;45.90;;;;;;6236306;28;20299;-77
2022/04/16 15:02:30;;;;;;;2.20;1.00;;;12.00;46.40;;;;;;6240040;28;20292;-77
2022/04/16 15:05:36;;;;;;;1.10;1.10;;;12.00;46.40;;;;;;6240460;28;20277;-77
2022/04/16 15:08:41;;;;;;;2.25;2.25;;;11.90;45.60;;;;;;6239821;28;20296;-77
2022/04/16 15:11:48;;;;;;;1.88;1.20;;;11.80;45.50;;;;;;6239804;28;20482;-77
2022/04/16 15:14:54;;;;;;;1.50;1.50;;;11.80;45.30;;;;;;6239631;28;20292;-76
2022/04/16 15:17:59;;;;;;;1.30;1.20;;;11.60;44.80;;;;;;6239441;28;20587;-76
2022/04/16 15:21:05;;;;;;;1.95;1.13;;;11.40;44.50;;;;;;6239591;28;20300;-77
2022/04/16 15:24:10;;;;;;;1.75;1.15;;;11.40;44.80;;;;;;6239788;28;20297;-76
2022/04/16 15:27:19;;;;;;;1.63;1.20;;;11.40;44.50;;;;;;6221753;28;20265;-76
2022/04/16 15:30:26;;;;;;;1.08;1.08;;;11.40;45.40;;;;;;6215356;28;20293;-78
2022/04/16 15:33:31;;;;;;;5.03;1.20;;;11.40;45.30;;;;;;6215039;28;20588;-76
2022/04/16 15:36:37;;;;;;;1.70;1.27;;;11.20;44.90;;;;;;6215225;28;20293;-76
2022/04/16 15:39:43;;;;;;;2.42;1.20;;;11.20;45.20;;;;;;6215055;28;20308;-76
2022/04/16 15:42:50;;;;;;;5.00;1.10;;;11.00;44.90;;;;;;6214864;28;20297;-77
2022/04/16 15:45:55;;;;;;;4.82;1.13;;;10.90;45.40;;;;;;6215087;28;20273;-77
2022/04/16 15:49:00;;;;;;;3.08;1.00;;;10.90;45.50;;;;;;6214721;28;20588;-77
2022/04/16 15:52:06;;;;;;;2.28;0.95;;;10.90;44.90;;;;;;6214384;28;20293;-77
2022/04/16 15:55:12;;;;;;;1.20;1.10;;;11.00;45.10;;;;;;6213535;28;20277;-77
2022/04/16 15:58:19;;;;;;;1.10;1.10;;;11.00;45.40;;;;;;6214710;28;20306;-77
2022/04/16 16:01:24;;;;;;;1.10;1.10;;;11.00;45.40;;;;;;6214889;28;20563;-77
2022/04/16 16:07:52;;;;;;;1.75;1.38;;;10.60;45.30;;;;;;6214356;28;20467;-76
2022/04/16 16:10:58;;;;;;;1.17;1.10;;;10.70;46.10;;;;;;6226887;28;20301;-76
2022/04/16 16:14:05;;;;;;;2.53;1.38;;;10.50;46.40;;;;;;6238455;28;20293;-76
2022/04/16 16:17:12;;;;;;;3.30;1.23;;;10.40;46.00;;;;;;6238228;28;20273;-76
2022/04/16 16:20:20;;;;;;;1.10;1.10;;;10.30;46.10;;;;;;6238590;28;20277;-76
2022/04/16 16:23:27;;;;;;;0.88;0.88;;;10.10;46.50;;;;;;6238047;28;20296;-75
2022/04/16 16:26:32;;;;;;;1.17;1.15;;;10.10;46.60;;;;;;6238147;28;20264;-76
2022/04/16 16:29:39;;;;;;;3.95;1.33;;;10.00;46.60;;;;;;6237592;28;20316;-77
2022/04/16 16:32:44;;;;;;;1.20;1.20;;;10.10;46.50;;;;;;6237528;28;20506;-77
2022/04/16 16:35:51;;;;;;;1.63;0.82;;;10.00;46.70;;;;;;6220567;28;20272;-77
2022/04/16 16:38:58;;;;;;;1.35;0.90;;;9.90;46.50;;;;;;6237941;28;20300;-77
2022/04/16 16:42:10;;;;;;;3.60;1.00;;;9.70;46.10;;;;;;6237678;28;20268;-77
2022/04/16 16:45:18;;;;;;;1.45;0.90;;;9.70;46.50;;;;;;6238347;28;20202;-77
2022/04/16 16:48:23;;;;;;;3.10;0.90;;;9.60;47.60;;;;;;6237674;28;20304;-78